Time;durP1;ratioP1;P1;durP2;ratioP2;P2;SDS_P1;SDS_P2;PMS_P1;PMS_P2;Temp;Humidity;BMP_temperature;BMP_pressure;BME280_temperature;BME280_humidity;BME280_pressure;Samples;Min_cycle;Max_cycle;Signal;HPM_P1;HPM_P2
2023/08/01 00:02:10;;;;;;;5.35;2.38;;;;;;;;;;5114341;28;20035;-63
2023/08/01 00:04:35;;;;;;;2.78;2.10;;;;;;;;;;5113326;28;20059;-63
2023/08/01 00:07:01;;;;;;;3.35;2.13;;;;;;;;;;5112099;28;20123;-62
2023/08/01 00:09:26;;;;;;;3.45;2.00;;;;;;;;;;5108416;28;20074;-63
2023/08/01 00:11:52;;;;;;;2.42;1.85;;;;;;;;;;5092630;28;20032;-63
2023/08/01 00:14:19;;;;;;;3.22;1.90;;;;;;;;;;5097382;28;20505;-63
2023/08/01 00:16:44;;;;;;;2.40;1.48;;;;;;;;;;5092407;28;20165;-63
2023/08/01 00:19:10;;;;;;;2.90;1.90;;;;;;;;;;5091230;28;20114;-62
2023/08/01 00:21:38;;;;;;;2.50;1.70;;;;;;;;;;5095016;28;20109;-62
2023/08/01 00:24:05;;;;;;;2.10;1.63;;;;;;;;;;5091656;28;20492;-62
2023/08/01 00:26:30;;;;;;;3.45;1.63;;;;;;;;;;5093223;28;20032;-61
2023/08/01 00:28:56;;;;;;;2.70;1.80;;;;;;;;;;5091392;28;20043;-61
2023/08/01 00:31:21;;;;;;;2.35;1.60;;;;;;;;;;5092551;28;20040;-62
2023/08/01 00:33:47;;;;;;;3.85;1.95;;;;;;;;;;5091748;28;20526;-62
2023/08/01 00:36:12;;;;;;;2.97;1.88;;;;;;;;;;5095860;28;20032;-62
2023/08/01 00:38:37;;;;;;;3.28;1.80;;;;;;;;;;5091738;28;20085;-63
2023/08/01 00:41:03;;;;;;;2.20;1.85;;;;;;;;;;5091604;28;20530;-62
2023/08/01 00:43:28;;;;;;;4.78;2.17;;;;;;;;;;5092059;28;20054;-62
2023/08/01 00:46:02;;;;;;;3.33;2.60;;;;;;;;;;5092730;28;20063;-62
2023/08/01 00:48:28;;;;;;;6.95;3.83;;;;;;;;;;5093981;28;20036;-62
2023/08/01 00:50:55;;;;;;;7.45;4.65;;;;;;;;;;5092037;28;20310;-62
2023/08/01 00:53:21;;;;;;;7.10;4.88;;;;;;;;;;5093194;28;20435;-62
2023/08/01 00:55:47;;;;;;;6.93;4.95;;;;;;;;;;5099220;28;20027;-62
2023/08/01 00:58:13;;;;;;;7.22;4.20;;;;;;;;;;5101942;27;20471;-63
2023/08/01 01:00:39;;;;;;;6.55;4.20;;;;;;;;;;5097100;28;20039;-62
2023/08/01 01:03:05;;;;;;;7.03;3.72;;;;;;;;;;5103338;28;20027;-62
2023/08/01 01:05:37;;;;;;;5.53;3.35;;;;;;;;;;5103662;28;20044;-63
2023/08/01 01:08:04;;;;;;;4.55;3.15;;;;;;;;;;5092383;28;20028;-62
2023/08/01 01:10:30;;;;;;;4.03;3.10;;;;;;;;;;5108624;28;20083;-62
2023/08/01 01:12:56;;;;;;;4.70;3.25;;;;;;;;;;5107057;28;20028;-62
2023/08/01 01:15:21;;;;;;;6.20;3.88;;;;;;;;;;5094487;28;20038;-62
2023/08/01 01:17:46;;;;;;;5.75;3.80;;;;;;;;;;5096320;28;20109;-62
2023/08/01 01:20:12;;;;;;;5.80;3.35;;;;;;;;;;5102109;28;20777;-62
2023/08/01 01:22:40;;;;;;;6.22;3.45;;;;;;;;;;5109551;28;20104;-62
2023/08/01 01:25:08;;;;;;;8.20;5.00;;;;;;;;;;5109254;28;20027;-62
2023/08/01 01:27:35;;;;;;;7.85;5.65;;;;;;;;;;5091663;28;20477;-62
2023/08/01 01:30:03;;;;;;;9.30;6.75;;;;;;;;;;5090895;28;20439;-62
2023/08/01 01:32:29;;;;;;;12.10;6.55;;;;;;;;;;5091202;28;20085;-61
2023/08/01 01:34:55;;;;;;;7.30;4.30;;;;;;;;;;5089949;28;20040;-62
2023/08/01 01:37:20;;;;;;;6.82;4.10;;;;;;;;;;5091985;28;20460;-61
2023/08/01 01:39:46;;;;;;;6.22;3.70;;;;;;;;;;5105865;28;20028;-63
2023/08/01 01:42:13;;;;;;;7.68;3.72;;;;;;;;;;5091809;28;20028;-61
2023/08/01 01:44:38;;;;;;;7.05;3.72;;;;;;;;;;5091182;28;20024;-61
2023/08/01 01:47:04;;;;;;;4.60;2.95;;;;;;;;;;5101327;28;20077;-61
2023/08/01 01:49:29;;;;;;;5.07;3.22;;;;;;;;;;5111501;28;20032;-61
2023/08/01 01:51:55;;;;;;;6.63;3.17;;;;;;;;;;5111142;28;20020;-62
2023/08/01 01:54:20;;;;;;;4.88;2.92;;;;;;;;;;5112235;28;20039;-62
2023/08/01 01:56:46;;;;;;;6.63;2.83;;;;;;;;;;5110924;28;20028;-60
2023/08/01 01:59:11;;;;;;;4.82;2.85;;;;;;;;;;5111148;28;20619;-62
2023/08/01 02:01:36;;;;;;;5.40;2.65;;;;;;;;;;5092068;28;20024;-62
2023/08/01 02:04:02;;;;;;;6.18;3.05;;;;;;;;;;5093419;28;20031;-62
2023/08/01 02:06:27;;;;;;;4.90;3.20;;;;;;;;;;5097855;28;20039;-61
2023/08/01 02:08:53;;;;;;;7.18;3.80;;;;;;;;;;5095918;28;20024;-61
2023/08/01 02:11:18;;;;;;;9.23;4.00;;;;;;;;;;5094316;28;20058;-61
2023/08/01 02:13:44;;;;;;;7.63;3.80;;;;;;;;;;5100590;28;20031;-61
2023/08/01 02:16:09;;;;;;;6.00;3.80;;;;;;;;;;5101496;28;20036;-61
2023/08/01 02:18:34;;;;;;;8.10;3.80;;;;;;;;;;5090865;28;20032;-61
2023/08/01 02:21:00;;;;;;;6.78;4.22;;;;;;;;;;5097539;28;20032;-61
2023/08/01 02:23:25;;;;;;;7.85;4.20;;;;;;;;;;5100189;28;20024;-61
2023/08/01 02:25:51;;;;;;;7.60;4.43;;;;;;;;;;5101097;28;20037;-61
2023/08/01 02:28:16;;;;;;;8.75;4.68;;;;;;;;;;5106416;28;20028;-61
2023/08/01 02:30:42;;;;;;;7.65;4.50;;;;;;;;;;5091011;28;20488;-62
2023/08/01 02:33:07;;;;;;;6.93;4.18;;;;;;;;;;5089251;28;20039;-62
2023/08/01 02:35:32;;;;;;;6.85;4.45;;;;;;;;;;5090747;28;20460;-61
2023/08/01 02:37:58;;;;;;;8.30;4.45;;;;;;;;;;5099439;28;20032;-61
2023/08/01 02:40:23;;;;;;;8.82;4.88;;;;;;;;;;5094165;28;20036;-61
2023/08/01 02:42:48;;;;;;;8.63;4.82;;;;;;;;;;5091701;28;20038;-61
2023/08/01 02:45:14;;;;;;;6.97;4.72;;;;;;;;;;5089495;28;20592;-61
2023/08/01 02:47:39;;;;;;;9.07;4.78;;;;;;;;;;5090437;28;20040;-61
2023/08/01 02:50:05;;;;;;;9.63;4.60;;;;;;;;;;5093207;28;20031;-62
2023/08/01 02:52:31;;;;;;;8.38;4.47;;;;;;;;;;5091881;28;20476;-62
2023/08/01 02:54:57;;;;;;;12.68;5.50;;;;;;;;;;5093780;28;20032;-61
2023/08/01 02:57:22;;;;;;;8.45;4.93;;;;;;;;;;5089984;28;20367;-61
2023/08/01 02:59:47;;;;;;;11.32;5.90;;;;;;;;;;5090651;28;20036;-60
2023/08/01 03:02:13;;;;;;;11.15;6.22;;;;;;;;;;5091756;28;20039;-62
2023/08/01 03:04:38;;;;;;;12.20;6.57;;;;;;;;;;5094267;28;20027;-62
2023/08/01 03:07:04;;;;;;;13.70;6.75;;;;;;;;;;5102197;28;20039;-62
2023/08/01 03:09:29;;;;;;;13.55;7.57;;;;;;;;;;5094934;28;20036;-62
2023/08/01 03:11:54;;;;;;;15.60;8.10;;;;;;;;;;5099781;28;20037;-63
2023/08/01 03:14:20;;;;;;;15.85;8.63;;;;;;;;;;5101234;28;20084;-62
2023/08/01 03:16:47;;;;;;;15.95;8.63;;;;;;;;;;5114211;28;20027;-62
2023/08/01 03:19:13;;;;;;;17.02;10.75;;;;;;;;;;5111422;28;20032;-62
2023/08/01 03:21:38;;;;;;;23.52;10.93;;;;;;;;;;5113759;28;20131;-62
2023/08/01 03:24:08;;;;;;;19.23;11.70;;;;;;;;;;5112121;28;20436;-62
2023/08/01 03:26:34;;;;;;;20.70;11.93;;;;;;;;;;5112429;28;20041;-62
2023/08/01 03:29:00;;;;;;;19.33;11.10;;;;;;;;;;5112028;28;20071;-61
2023/08/01 03:31:25;;;;;;;22.40;11.88;;;;;;;;;;5114248;28;20047;-61
2023/08/01 03:33:50;;;;;;;21.35;13.23;;;;;;;;;;5114351;28;20042;-61
2023/08/01 03:36:16;;;;;;;20.95;11.98;;;;;;;;;;5113515;28;20084;-61
2023/08/01 03:38:44;;;;;;;23.65;12.75;;;;;;;;;;5112974;28;20031;-60
2023/08/01 03:41:09;;;;;;;25.38;13.80;;;;;;;;;;5113247;28;20035;-61
2023/08/01 03:43:35;;;;;;;21.48;12.93;;;;;;;;;;5114376;28;20038;-60
2023/08/01 03:46:01;;;;;;;22.77;14.15;;;;;;;;;;5113618;28;20031;-61
2023/08/01 03:48:26;;;;;;;25.05;14.15;;;;;;;;;;5114006;28;20049;-60
2023/08/01 03:50:51;;;;;;;24.80;14.23;;;;;;;;;;5113190;28;20031;-62
2023/08/01 03:53:17;;;;;;;29.05;14.10;;;;;;;;;;5113052;28;20027;-61
2023/08/01 03:55:44;;;;;;;24.70;14.50;;;;;;;;;;5098702;28;20058;-62
2023/08/01 03:58:09;;;;;;;30.73;14.75;;;;;;;;;;5092673;28;20032;-62
2023/08/01 04:00:34;;;;;;;27.95;15.05;;;;;;;;;;5093553;28;20027;-62
2023/08/01 04:03:01;;;;;;;24.00;14.77;;;;;;;;;;5093282;28;20041;-61
2023/08/01 04:05:27;;;;;;;27.65;15.88;;;;;;;;;;5104371;28;20035;-61
2023/08/01 04:07:56;;;;;;;27.00;14.75;;;;;;;;;;5113839;28;20050;-61
2023/08/01 04:10:22;;;;;;;28.92;16.15;;;;;;;;;;5113120;28;20026;-60
2023/08/01 04:12:47;;;;;;;27.02;15.57;;;;;;;;;;5113605;28;20031;-61
2023/08/01 04:15:13;;;;;;;26.42;15.23;;;;;;;;;;5112954;28;20024;-61
2023/08/01 04:17:38;;;;;;;25.80;15.20;;;;;;;;;;5113587;28;20396;-61
2023/08/01 04:20:04;;;;;;;25.63;15.55;;;;;;;;;;5110422;28;20374;-61
2023/08/01 04:22:30;;;;;;;25.95;15.20;;;;;;;;;;5113456;28;20034;-60
2023/08/01 04:24:55;;;;;;;26.73;14.27;;;;;;;;;;5113305;28;20028;-60
2023/08/01 04:27:21;;;;;;;32.28;16.70;;;;;;;;;;5112356;28;20650;-60
2023/08/01 04:29:47;;;;;;;34.00;15.80;;;;;;;;;;5112085;28;20047;-60
2023/08/01 04:32:14;;;;;;;28.30;15.88;;;;;;;;;;5112651;28;20114;-60
2023/08/01 04:34:39;;;;;;;32.97;16.02;;;;;;;;;;5112231;28;20486;-61
2023/08/01 04:37:05;;;;;;;30.10;15.95;;;;;;;;;;5110966;28;20031;-60
2023/08/01 04:39:30;;;;;;;31.15;14.27;;;;;;;;;;5113244;27;20057;-61
2023/08/01 04:41:55;;;;;;;29.35;14.70;;;;;;;;;;5111939;28;20118;-60
2023/08/01 04:44:21;;;;;;;22.85;14.13;;;;;;;;;;5112401;27;20036;-61
2023/08/01 04:46:48;;;;;;;25.58;14.02;;;;;;;;;;5113087;28;20066;-60
2023/08/01 04:49:13;;;;;;;27.80;13.98;;;;;;;;;;5110274;28;20405;-60
2023/08/01 04:51:38;;;;;;;26.02;14.55;;;;;;;;;;5112918;28;20114;-60
2023/08/01 04:54:04;;;;;;;22.58;12.18;;;;;;;;;;5111132;28;20084;-60
2023/08/01 04:56:29;;;;;;;28.80;12.57;;;;;;;;;;5092319;28;20038;-60
2023/08/01 04:58:54;;;;;;;30.02;13.07;;;;;;;;;;5093460;28;20032;-61
2023/08/01 05:01:20;;;;;;;23.50;13.27;;;;;;;;;;5092655;28;20080;-61
2023/08/01 05:03:45;;;;;;;27.48;13.15;;;;;;;;;;5093462;28;20138;-61
2023/08/01 05:06:10;;;;;;;24.90;14.10;;;;;;;;;;5112320;28;20034;-60
2023/08/01 05:08:36;;;;;;;24.63;13.55;;;;;;;;;;5113631;28;20027;-61
2023/08/01 05:11:01;;;;;;;23.73;13.43;;;;;;;;;;5112260;28;20053;-61
2023/08/01 05:13:26;;;;;;;25.67;13.18;;;;;;;;;;5110906;28;20031;-61
2023/08/01 05:15:52;;;;;;;24.48;13.45;;;;;;;;;;5111385;28;20414;-61
2023/08/01 05:18:17;;;;;;;26.55;14.02;;;;;;;;;;5111878;28;20031;-61
2023/08/01 05:20:43;;;;;;;27.92;13.90;;;;;;;;;;5111381;28;20051;-61
2023/08/01 05:23:08;;;;;;;24.75;12.85;;;;;;;;;;5111985;28;20038;-61
2023/08/01 05:25:34;;;;;;;31.02;14.30;;;;;;;;;;5112037;28;20055;-61
2023/08/01 05:28:00;;;;;;;34.00;15.48;;;;;;;;;;5112352;28;20040;-61
2023/08/01 05:30:25;;;;;;;26.67;13.45;;;;;;;;;;5111166;28;20109;-61
2023/08/01 05:32:50;;;;;;;24.30;13.45;;;;;;;;;;5112214;28;20026;-60
2023/08/01 05:35:17;;;;;;;24.13;13.90;;;;;;;;;;5111299;28;20062;-61
2023/08/01 05:37:43;;;;;;;26.75;14.30;;;;;;;;;;5112201;28;20031;-61
2023/08/01 05:40:09;;;;;;;27.63;13.23;;;;;;;;;;5111423;28;20039;-61
2023/08/01 05:42:35;;;;;;;25.30;13.32;;;;;;;;;;5112275;28;20036;-61
2023/08/01 05:45:00;;;;;;;25.83;14.32;;;;;;;;;;5112246;28;20077;-61
2023/08/01 05:47:26;;;;;;;23.80;12.98;;;;;;;;;;5111385;28;20027;-61
2023/08/01 05:49:51;;;;;;;27.30;13.45;;;;;;;;;;5110495;28;20172;-60
2023/08/01 05:52:16;;;;;;;21.98;10.65;;;;;;;;;;5111605;28;20089;-60
2023/08/01 05:54:42;;;;;;;23.73;13.13;;;;;;;;;;5104181;28;20462;-60
2023/08/01 05:57:07;;;;;;;25.25;12.98;;;;;;;;;;5091239;28;20032;-60
2023/08/01 05:59:33;;;;;;;26.88;12.60;;;;;;;;;;5091195;28;20028;-59
2023/08/01 06:01:58;;;;;;;22.17;12.48;;;;;;;;;;5091798;28;20418;-59
2023/08/01 06:04:24;;;;;;;22.48;12.63;;;;;;;;;;5103588;28;20365;-60
2023/08/01 06:06:49;;;;;;;24.00;13.57;;;;;;;;;;5111855;28;20035;-60
2023/08/01 06:09:14;;;;;;;22.48;12.07;;;;;;;;;;5110134;28;20036;-59
2023/08/01 06:11:40;;;;;;;21.73;13.55;;;;;;;;;;5112048;28;20501;-59
2023/08/01 06:14:06;;;;;;;23.90;13.07;;;;;;;;;;5111975;28;20035;-60
2023/08/01 06:16:31;;;;;;;25.17;14.15;;;;;;;;;;5111513;28;20032;-60
2023/08/01 06:18:58;;;;;;;27.92;14.60;;;;;;;;;;5111600;28;20050;-59
2023/08/01 06:21:24;;;;;;;26.83;14.95;;;;;;;;;;5109856;28;20400;-60
2023/08/01 06:23:49;;;;;;;24.77;14.20;;;;;;;;;;5111738;28;20028;-59
2023/08/01 06:26:15;;;;;;;28.10;14.45;;;;;;;;;;5111105;28;20040;-59
2023/08/01 06:28:41;;;;;;;28.73;15.55;;;;;;;;;;5107377;28;20387;-60
2023/08/01 06:31:06;;;;;;;27.42;15.90;;;;;;;;;;5111469;28;20047;-60
2023/08/01 06:33:32;;;;;;;25.58;15.50;;;;;;;;;;5111032;28;20054;-60
2023/08/01 06:35:57;;;;;;;28.55;17.17;;;;;;;;;;5113131;28;20027;-59
2023/08/01 06:38:23;;;;;;;26.92;15.40;;;;;;;;;;5114866;28;20024;-59
2023/08/01 06:40:48;;;;;;;25.17;14.02;;;;;;;;;;5115409;28;20528;-60
2023/08/01 06:43:13;;;;;;;30.13;15.63;;;;;;;;;;5114533;28;20024;-60
2023/08/01 06:45:39;;;;;;;28.95;15.68;;;;;;;;;;5115097;27;20472;-60
2023/08/01 06:48:04;;;;;;;33.22;16.63;;;;;;;;;;5115141;27;20032;-60
2023/08/01 06:50:32;;;;;;;27.02;16.13;;;;;;;;;;5114484;28;20051;-59
2023/08/01 06:52:57;;;;;;;30.50;15.25;;;;;;;;;;5115392;28;20056;-60
2023/08/01 06:55:22;;;;;;;25.48;15.60;;;;;;;;;;5101700;28;20443;-60
2023/08/01 06:57:48;;;;;;;29.70;16.20;;;;;;;;;;5094474;28;20036;-60
2023/08/01 07:00:14;;;;;;;28.02;15.95;;;;;;;;;;5097467;28;20023;-60
2023/08/01 07:02:39;;;;;;;29.67;15.65;;;;;;;;;;5113350;28;20388;-59
2023/08/01 07:05:05;;;;;;;26.98;15.35;;;;;;;;;;5112493;28;20336;-60
2023/08/01 07:07:30;;;;;;;27.35;14.52;;;;;;;;;;5113042;28;20035;-60
2023/08/01 07:09:56;;;;;;;22.92;14.50;;;;;;;;;;5115746;28;20027;-59
2023/08/01 07:12:21;;;;;;;28.33;15.20;;;;;;;;;;5115042;28;20028;-60
2023/08/01 07:14:47;;;;;;;24.83;15.32;;;;;;;;;;5115778;28;20028;-59
2023/08/01 07:17:13;;;;;;;27.15;14.55;;;;;;;;;;5117115;28;20110;-59
2023/08/01 07:19:38;;;;;;;26.70;12.43;;;;;;;;;;5115703;27;20097;-59
2023/08/01 07:22:03;;;;;;;21.45;12.90;;;;;;;;;;5114886;28;20039;-59
2023/08/01 07:24:29;;;;;;;21.52;12.70;;;;;;;;;;5114424;28;20024;-59
2023/08/01 07:26:56;;;;;;;21.27;12.38;;;;;;;;;;5115173;28;20484;-60
2023/08/01 07:29:22;;;;;;;20.83;12.98;;;;;;;;;;5114082;28;20122;-60
2023/08/01 07:31:47;;;;;;;21.13;13.57;;;;;;;;;;5115286;28;20051;-60
2023/08/01 07:34:13;;;;;;;22.17;12.68;;;;;;;;;;5113269;28;20475;-60
2023/08/01 07:36:39;;;;;;;21.70;12.50;;;;;;;;;;5114642;28;20392;-60
2023/08/01 07:39:04;;;;;;;19.55;12.70;;;;;;;;;;5114084;28;20475;-60
2023/08/01 07:41:30;;;;;;;20.70;12.65;;;;;;;;;;5113391;28;20408;-61
2023/08/01 07:43:55;;;;;;;16.55;10.07;;;;;;;;;;5114293;28;20487;-60
2023/08/01 07:46:20;;;;;;;15.30;10.55;;;;;;;;;;5112429;28;20460;-60
2023/08/01 07:48:46;;;;;;;16.67;10.77;;;;;;;;;;5113433;28;20338;-60
2023/08/01 07:51:11;;;;;;;18.40;10.70;;;;;;;;;;5114234;28;20070;-60
2023/08/01 07:53:37;;;;;;;17.23;10.38;;;;;;;;;;5113358;28;20024;-60
2023/08/01 07:56:02;;;;;;;19.00;11.60;;;;;;;;;;5096035;28;20060;-60
2023/08/01 07:58:29;;;;;;;18.60;12.07;;;;;;;;;;5093061;28;20063;-60
2023/08/01 08:00:54;;;;;;;20.10;12.13;;;;;;;;;;5103744;28;20028;-60
2023/08/01 08:03:22;;;;;;;18.17;11.15;;;;;;;;;;5112955;28;20096;-60
2023/08/01 08:05:48;;;;;;;17.00;11.70;;;;;;;;;;5114017;28;20032;-61
2023/08/01 08:08:14;;;;;;;17.10;11.27;;;;;;;;;;5114102;28;20028;-60
2023/08/01 08:10:39;;;;;;;16.30;10.88;;;;;;;;;;5114980;28;20035;-60
2023/08/01 08:13:04;;;;;;;19.40;11.40;;;;;;;;;;5114881;28;20080;-60
2023/08/01 08:15:34;;;;;;;21.08;10.45;;;;;;;;;;5112266;28;20123;-60
2023/08/01 08:18:00;;;;;;;18.25;11.18;;;;;;;;;;5110877;28;20024;-59
2023/08/01 08:20:25;;;;;;;15.80;10.70;;;;;;;;;;5111614;28;20134;-60
2023/08/01 08:22:51;;;;;;;17.48;10.40;;;;;;;;;;5113671;28;20424;-60
2023/08/01 08:25:16;;;;;;;16.83;10.00;;;;;;;;;;5113289;28;20114;-61
2023/08/01 08:27:42;;;;;;;16.45;10.20;;;;;;;;;;5113154;28;20031;-61
2023/08/01 08:30:07;;;;;;;15.23;8.25;;;;;;;;;;5113444;28;20054;-60
2023/08/01 08:32:33;;;;;;;15.32;8.23;;;;;;;;;;5112670;28;20465;-60
2023/08/01 08:34:58;;;;;;;14.63;8.38;;;;;;;;;;5112772;28;20050;-60
2023/08/01 08:37:24;;;;;;;13.98;7.65;;;;;;;;;;5112695;28;20032;-60
2023/08/01 08:39:50;;;;;;;14.27;6.45;;;;;;;;;;5111881;28;20130;-59
2023/08/01 08:42:18;;;;;;;14.88;6.70;;;;;;;;;;5112047;28;20034;-59
2023/08/01 08:44:48;;;;;;;12.75;6.05;;;;;;;;;;5114490;28;20034;-59
2023/08/01 08:47:17;;;;;;;12.97;6.77;;;;;;;;;;5113981;28;20073;-60
2023/08/01 08:49:44;;;;;;;10.38;5.93;;;;;;;;;;5113203;28;20244;-61
2023/08/01 08:52:10;;;;;;;11.40;5.95;;;;;;;;;;5113813;28;20088;-60
2023/08/01 08:54:37;;;;;;;13.10;7.00;;;;;;;;;;5111369;28;20121;-61
2023/08/01 08:57:06;;;;;;;9.95;5.45;;;;;;;;;;5112996;28;20030;-60
2023/08/01 08:59:35;;;;;;;11.10;7.40;;;;;;;;;;5111738;28;20077;-61
2023/08/01 09:02:03;;;;;;;13.65;6.35;;;;;;;;;;5114215;28;20023;-60
2023/08/01 09:04:30;;;;;;;11.50;6.18;;;;;;;;;;5114169;28;20028;-60
2023/08/01 09:07:01;;;;;;;11.15;6.30;;;;;;;;;;5114086;28;20107;-60
2023/08/01 09:09:27;;;;;;;13.27;6.28;;;;;;;;;;5116761;28;20031;-61
2023/08/01 09:11:56;;;;;;;9.77;5.43;;;;;;;;;;5115309;28;20528;-60
2023/08/01 09:14:22;;;;;;;10.35;6.47;;;;;;;;;;5112429;28;20032;-61
2023/08/01 09:16:48;;;;;;;12.68;6.65;;;;;;;;;;5114484;28;20053;-60
2023/08/01 09:19:19;;;;;;;12.80;7.28;;;;;;;;;;5115274;28;20563;-61
2023/08/01 09:21:45;;;;;;;;;;;;;;;;;;5113988;28;20042;-61
2023/08/01 09:24:13;;;;;;;11.50;6.57;;;;;;;;;;5110487;28;20010;-61
2023/08/01 09:26:39;;;;;;;10.07;6.63;;;;;;;;;;5112085;28;20184;-61
2023/08/01 09:29:05;;;;;;;12.80;6.50;;;;;;;;;;5111608;28;20517;-60
2023/08/01 09:31:36;;;;;;;9.45;5.20;;;;;;;;;;5109520;28;20479;-61
2023/08/01 09:34:05;;;;;;;9.93;5.10;;;;;;;;;;5112693;28;20039;-60
2023/08/01 09:36:30;;;;;;;10.40;5.93;;;;;;;;;;5111485;28;20027;-60
2023/08/01 09:39:01;;;;;;;13.77;5.60;;;;;;;;;;5111042;28;20042;-60
2023/08/01 09:41:26;;;;;;;9.45;5.10;;;;;;;;;;5111531;28;20065;-60
2023/08/01 09:43:52;;;;;;;11.52;5.88;;;;;;;;;;5111058;28;20424;-60
2023/08/01 09:46:17;;;;;;;9.27;6.10;;;;;;;;;;5110276;28;20059;-60
2023/08/01 09:48:43;;;;;;;12.40;6.65;;;;;;;;;;5111215;28;20119;-60
2023/08/01 09:51:10;;;;;;;10.57;6.63;;;;;;;;;;5112102;28;20027;-60
2023/08/01 09:53:47;;;;;;;13.38;7.32;;;;;;;;;;5105049;28;20384;-60
2023/08/01 09:56:16;;;;;;;10.32;6.22;;;;;;;;;;5091765;28;20477;-62
2023/08/01 09:58:43;;;;;;;10.85;5.95;;;;;;;;;;5090885;28;20098;-60
2023/08/01 10:01:08;;;;;;;8.48;5.43;;;;;;;;;;5108532;28;20027;-60
2023/08/01 10:03:34;;;;;;;11.68;5.38;;;;;;;;;;5111530;28;20046;-63
2023/08/01 10:06:00;;;;;;;13.18;6.00;;;;;;;;;;5111872;28;20023;-61
2023/08/01 10:08:27;;;;;;;12.23;5.60;;;;;;;;;;5111005;28;20085;-60
2023/08/01 10:10:56;;;;;;;8.80;5.22;;;;;;;;;;5113212;28;20077;-60
2023/08/01 10:13:24;;;;;;;11.50;5.50;;;;;;;;;;5115800;28;20034;-60
2023/08/01 10:15:53;;;;;;;10.30;4.78;;;;;;;;;;5113958;28;20031;-60
2023/08/01 10:18:19;;;;;;;11.35;4.80;;;;;;;;;;5116161;27;20114;-60
2023/08/01 10:20:46;;;;;;;8.43;4.50;;;;;;;;;;5115016;28;20028;-61
2023/08/01 10:23:12;;;;;;;8.77;3.95;;;;;;;;;;5116047;28;20484;-60
2023/08/01 10:25:39;;;;;;;6.63;4.00;;;;;;;;;;5115096;28;20461;-60
2023/08/01 10:28:06;;;;;;;8.60;3.92;;;;;;;;;;5115757;27;20151;-60
2023/08/01 10:30:31;;;;;;;6.35;3.22;;;;;;;;;;5112662;28;20085;-60
2023/08/01 10:32:58;;;;;;;9.52;4.40;;;;;;;;;;5115197;28;20384;-60
2023/08/01 10:35:34;;;;;;;8.90;4.10;;;;;;;;;;5113996;28;20028;-60
2023/08/01 10:38:04;;;;;;;7.95;4.07;;;;;;;;;;5115731;28;20038;-60
2023/08/01 10:40:42;;;;;;;7.63;4.00;;;;;;;;;;5113312;28;20028;-61
2023/08/01 10:43:21;;;;;;;6.95;4.00;;;;;;;;;;5115505;28;20503;-60
2023/08/01 10:45:47;;;;;;;8.50;4.20;;;;;;;;;;5112262;28;20429;-59
2023/08/01 10:48:13;;;;;;;8.15;4.90;;;;;;;;;;5115496;28;20114;-61
2023/08/01 10:50:39;;;;;;;8.77;5.10;;;;;;;;;;5114159;28;20518;-60
2023/08/01 10:53:07;;;;;;;10.43;5.40;;;;;;;;;;5113797;28;20028;-60
2023/08/01 10:55:45;;;;;;;11.32;6.28;;;;;;;;;;5094037;28;20047;-60
2023/08/01 10:58:10;;;;;;;6.53;4.55;;;;;;;;;;5095393;28;20115;-59
2023/08/01 11:00:36;;;;;;;5.60;3.60;;;;;;;;;;5108609;28;20149;-60
2023/08/01 11:03:02;;;;;;;7.15;4.22;;;;;;;;;;5115084;28;20023;-60
2023/08/01 11:05:29;;;;;;;7.38;4.85;;;;;;;;;;5114239;28;20043;-61
2023/08/01 11:07:59;;;;;;;10.80;4.60;;;;;;;;;;5111196;28;20533;-60
2023/08/01 11:10:26;;;;;;;6.28;4.15;;;;;;;;;;5114663;28;20067;-61
2023/08/01 11:12:53;;;;;;;6.78;3.33;;;;;;;;;;5113297;28;20388;-61
2023/08/01 11:15:18;;;;;;;8.13;4.28;;;;;;;;;;5114921;28;20039;-61
2023/08/01 11:17:49;;;;;;;5.63;3.90;;;;;;;;;;5112722;28;20038;-61
2023/08/01 11:20:15;;;;;;;10.93;4.70;;;;;;;;;;5114943;28;20066;-61
2023/08/01 11:22:57;;;;;;;8.95;4.90;;;;;;;;;;5112047;27;20032;-61
2023/08/01 11:25:50;;;;;;;8.68;3.85;;;;;;;;;;5114586;28;20379;-60
2023/08/01 11:28:17;;;;;;;7.05;4.30;;;;;;;;;;5114955;28;20038;-60
2023/08/01 11:30:43;;;;;;;8.63;4.07;;;;;;;;;;5112384;28;20047;-60
2023/08/01 11:33:20;;;;;;;6.35;3.70;;;;;;;;;;5114531;28;20402;-60
2023/08/01 11:35:50;;;;;;;6.13;4.10;;;;;;;;;;5113630;28;20088;-61
2023/08/01 11:38:16;;;;;;;7.18;3.72;;;;;;;;;;5112785;28;20035;-61
2023/08/01 11:40:42;;;;;;;6.40;3.70;;;;;;;;;;5113647;28;20023;-61
2023/08/01 11:43:07;;;;;;;8.80;4.13;;;;;;;;;;5114532;28;20510;-61
2023/08/01 11:45:33;;;;;;;7.75;3.70;;;;;;;;;;5112651;28;20039;-61
2023/08/01 11:47:58;;;;;;;6.13;3.38;;;;;;;;;;5114624;28;20450;-61
2023/08/01 11:50:25;;;;;;;8.27;3.92;;;;;;;;;;5114288;28;20073;-61
2023/08/01 11:52:51;;;;;;;7.35;3.40;;;;;;;;;;5113378;28;20188;-61
2023/08/01 11:55:27;;;;;;;8.90;3.50;;;;;;;;;;5110666;28;20035;-61
2023/08/01 11:57:56;;;;;;;6.25;2.78;;;;;;;;;;5113187;28;20055;-61
2023/08/01 12:00:27;;;;;;;6.53;2.65;;;;;;;;;;5113202;28;20059;-60
2023/08/01 12:03:07;;;;;;;6.70;2.70;;;;;;;;;;5113217;28;20023;-61
2023/08/01 12:05:33;;;;;;;5.63;2.63;;;;;;;;;;5112061;27;20361;-61
2023/08/01 12:08:09;;;;;;;5.15;2.60;;;;;;;;;;5114061;28;20027;-60
2023/08/01 12:10:39;;;;;;;6.18;2.20;;;;;;;;;;5111414;28;20379;-61
2023/08/01 12:13:05;;;;;;;5.30;2.67;;;;;;;;;;5113942;28;20103;-62
2023/08/01 12:15:30;;;;;;;4.22;2.30;;;;;;;;;;5113156;28;20440;-60
2023/08/01 12:17:57;;;;;;;4.63;2.10;;;;;;;;;;5113093;28;20534;-60
2023/08/01 12:20:22;;;;;;;4.60;2.20;;;;;;;;;;5112927;28;20035;-61
2023/08/01 12:22:47;;;;;;;5.50;1.88;;;;;;;;;;5112924;27;20131;-61
2023/08/01 12:25:13;;;;;;;6.90;2.38;;;;;;;;;;5114030;28;20020;-61
2023/08/01 12:27:39;;;;;;;6.43;2.30;;;;;;;;;;5112798;28;20028;-61
2023/08/01 12:30:05;;;;;;;5.15;2.00;;;;;;;;;;5113503;28;20071;-60
2023/08/01 12:32:30;;;;;;;5.00;1.90;;;;;;;;;;5112754;27;20023;-60
2023/08/01 12:34:55;;;;;;;8.57;2.20;;;;;;;;;;5112036;28;20034;-60
2023/08/01 12:37:21;;;;;;;6.45;2.38;;;;;;;;;;5112010;28;20038;-61
2023/08/01 12:39:46;;;;;;;5.47;2.00;;;;;;;;;;5112818;28;20027;-61
2023/08/01 12:42:13;;;;;;;6.95;2.00;;;;;;;;;;5111938;28;20128;-61
2023/08/01 12:44:38;;;;;;;4.80;2.42;;;;;;;;;;5111410;28;20039;-61
2023/08/01 12:47:04;;;;;;;5.60;2.33;;;;;;;;;;5113210;28;20118;-61
2023/08/01 12:49:29;;;;;;;6.43;2.38;;;;;;;;;;5113220;28;20040;-61
2023/08/01 12:51:55;;;;;;;7.43;2.42;;;;;;;;;;5112031;28;20020;-61
2023/08/01 12:54:20;;;;;;;4.50;1.98;;;;;;;;;;5100808;28;20050;-61
2023/08/01 12:56:45;;;;;;;5.95;2.10;;;;;;;;;;5091594;28;20028;-61
2023/08/01 12:59:11;;;;;;;4.50;2.17;;;;;;;;;;5092545;28;20036;-61
2023/08/01 13:01:36;;;;;;;5.97;2.40;;;;;;;;;;5110350;28;20081;-60
2023/08/01 13:04:02;;;;;;;6.60;2.42;;;;;;;;;;5112940;28;20443;-61
2023/08/01 13:06:27;;;;;;;6.00;2.38;;;;;;;;;;5112923;28;20581;-60
2023/08/01 13:08:53;;;;;;;9.60;2.95;;;;;;;;;;5112008;28;20081;-62
2023/08/01 13:11:18;;;;;;;6.03;2.72;;;;;;;;;;5112848;28;20036;-61
2023/08/01 13:13:43;;;;;;;4.20;2.35;;;;;;;;;;5110198;28;20357;-61
2023/08/01 13:16:09;;;;;;;6.88;2.60;;;;;;;;;;5112264;28;20034;-61
2023/08/01 13:18:34;;;;;;;6.28;2.47;;;;;;;;;;5112127;28;20045;-61
2023/08/01 13:21:01;;;;;;;5.43;2.45;;;;;;;;;;5112086;28;20490;-61
2023/08/01 13:23:26;;;;;;;6.70;2.40;;;;;;;;;;5112607;28;20417;-61
2023/08/01 13:25:52;;;;;;;6.20;2.40;;;;;;;;;;5111761;27;20580;-61
2023/08/01 13:28:17;;;;;;;3.38;2.17;;;;;;;;;;5111384;28;20062;-61
2023/08/01 13:30:43;;;;;;;4.43;1.98;;;;;;;;;;5109138;28;20043;-62
2023/08/01 13:33:08;;;;;;;5.85;2.50;;;;;;;;;;5113242;28;20035;-61
2023/08/01 13:35:34;;;;;;;5.70;2.38;;;;;;;;;;5111857;28;20024;-61
2023/08/01 13:38:00;;;;;;;4.97;2.20;;;;;;;;;;5112140;28;20034;-61
2023/08/01 13:40:25;;;;;;;6.07;2.30;;;;;;;;;;5112382;28;20023;-61
2023/08/01 13:42:51;;;;;;;4.78;2.00;;;;;;;;;;5111117;28;20050;-61
2023/08/01 13:45:16;;;;;;;6.40;2.08;;;;;;;;;;5108977;28;20460;-61
2023/08/01 13:47:42;;;;;;;4.47;2.00;;;;;;;;;;5111386;28;20043;-60
2023/08/01 13:50:08;;;;;;;6.05;1.85;;;;;;;;;;5111906;28;20024;-60
2023/08/01 13:52:34;;;;;;;3.67;1.85;;;;;;;;;;5111891;28;20028;-60
2023/08/01 13:54:59;;;;;;;6.53;2.08;;;;;;;;;;5093673;28;20134;-61
2023/08/01 13:57:26;;;;;;;7.28;2.28;;;;;;;;;;5091604;28;20077;-61
2023/08/01 13:59:51;;;;;;;5.15;2.13;;;;;;;;;;5099852;28;20031;-61
2023/08/01 14:02:17;;;;;;;4.45;2.00;;;;;;;;;;5108248;28;20088;-61
2023/08/01 14:04:42;;;;;;;3.97;1.90;;;;;;;;;;5111430;28;20038;-61
2023/08/01 14:07:07;;;;;;;4.82;1.83;;;;;;;;;;5111791;28;20461;-61
2023/08/01 14:09:35;;;;;;;5.78;1.85;;;;;;;;;;5112051;28;20024;-61
2023/08/01 14:12:01;;;;;;;3.30;1.60;;;;;;;;;;5110992;28;20119;-61
2023/08/01 14:14:27;;;;;;;5.50;1.80;;;;;;;;;;5111053;28;20135;-61
2023/08/01 14:16:53;;;;;;;4.78;1.88;;;;;;;;;;5109746;28;20483;-61
2023/08/01 14:19:18;;;;;;;4.45;1.90;;;;;;;;;;5112288;28;20042;-61
2023/08/01 14:21:43;;;;;;;6.43;1.80;;;;;;;;;;5111251;28;20421;-61
2023/08/01 14:24:09;;;;;;;4.55;1.60;;;;;;;;;;5111508;28;20024;-60
2023/08/01 14:26:34;;;;;;;4.13;1.60;;;;;;;;;;5111947;28;20445;-61